createdAt,value
2018-11-07T00:00:39.662Z,22.33
2018-11-07T00:03:43.805Z,17.57
2018-11-07T00:06:47.950Z,20.07
2018-11-07T00:09:52.362Z,26.93
2018-11-07T00:12:56.510Z,21.23
2018-11-07T00:16:00.658Z,22.57
2018-11-07T00:19:04.995Z,21.70
2018-11-07T00:22:09.134Z,24.00
2018-11-07T00:25:13.550Z,21.07
2018-11-07T00:28:17.677Z,17.00
2018-11-07T00:31:21.823Z,17.67
2018-11-07T00:34:25.948Z,16.73
2018-11-07T00:37:30.110Z,16.47
2018-11-07T00:40:34.226Z,17.27
2018-11-07T00:43:38.334Z,17.73
2018-11-07T00:46:42.453Z,19.87
2018-11-07T00:49:46.573Z,21.07
2018-11-07T00:52:50.697Z,16.63
2018-11-07T00:55:55.634Z,17.93
2018-11-07T00:58:59.750Z,18.53
2018-11-07T01:02:03.882Z,14.50
2018-11-07T01:05:09.920Z,19.80
2018-11-07T01:08:14.042Z,21.03
2018-11-07T01:11:18.166Z,15.53
2018-11-07T01:14:22.306Z,19.77
2018-11-07T01:17:26.435Z,23.60
2018-11-07T01:20:30.561Z,17.97
2018-11-07T01:23:34.936Z,20.57
2018-11-07T01:26:39.089Z,23.30
2018-11-07T01:29:43.211Z,18.63
2018-11-07T01:32:47.343Z,17.57
2018-11-07T01:35:51.465Z,17.10
2018-11-07T01:38:55.587Z,17.20
2018-11-07T01:41:59.725Z,19.10
2018-11-07T01:45:03.821Z,19.67
2018-11-07T01:48:07.995Z,19.37
2018-11-07T01:51:12.122Z,16.40
2018-11-07T01:54:16.248Z,17.57
2018-11-07T01:57:20.368Z,14.33
2018-11-07T02:00:24.487Z,14.53
2018-11-07T02:03:28.606Z,19.50
2018-11-07T02:06:32.720Z,15.07
2018-11-07T02:09:36.832Z,14.13
2018-11-07T02:12:41.548Z,14.83
2018-11-07T02:15:45.720Z,16.53
2018-11-07T02:18:49.826Z,15.60
2018-11-07T02:21:53.934Z,15.27
2018-11-07T02:24:58.059Z,18.20
2018-11-07T02:28:02.160Z,13.13
2018-11-07T02:31:06.442Z,14.17
2018-11-07T02:34:10.562Z,16.93
2018-11-07T02:37:14.674Z,15.00
2018-11-07T02:40:18.795Z,14.00
2018-11-07T02:43:22.907Z,14.97
2018-11-07T02:46:27.017Z,11.30
2018-11-07T02:49:31.126Z,11.73
2018-11-07T02:52:35.235Z,11.97
2018-11-07T02:55:39.345Z,10.73
2018-11-07T02:58:43.457Z,11.47
2018-11-07T03:01:47.577Z,13.03
2018-11-07T03:04:51.695Z,11.23
2018-11-07T03:07:55.858Z,11.10
2018-11-07T03:11:04.016Z,10.57
2018-11-07T03:14:08.898Z,12.10
2018-11-07T03:17:13.011Z,8.83
2018-11-07T03:20:17.120Z,7.47
2018-11-07T03:23:21.516Z,8.90
2018-11-07T03:26:25.906Z,11.40
2018-11-07T03:29:30.023Z,6.90
2018-11-07T03:32:34.135Z,11.43
2018-11-07T03:35:38.231Z,8.23
2018-11-07T03:38:42.351Z,6.87
2018-11-07T03:41:46.443Z,8.37
2018-11-07T03:44:50.554Z,10.10
2018-11-07T03:47:54.856Z,8.83
2018-11-07T03:50:59.370Z,7.97
2018-11-07T03:54:03.497Z,11.57
2018-11-07T03:57:07.622Z,10.57
2018-11-07T04:00:11.741Z,8.80
2018-11-07T04:03:16.079Z,7.30
2018-11-07T04:06:20.195Z,7.57
2018-11-07T04:09:24.328Z,6.50
2018-11-07T04:12:28.456Z,7.67
2018-11-07T04:15:32.579Z,10.13
2018-11-07T04:18:36.703Z,10.37
2018-11-07T04:21:40.839Z,7.83
2018-11-07T04:24:44.962Z,9.13
2018-11-07T04:27:49.079Z,7.87
2018-11-07T04:30:53.206Z,7.97
2018-11-07T04:33:57.343Z,7.67
2018-11-07T04:37:01.454Z,6.83
2018-11-07T04:40:06.362Z,6.90
2018-11-07T04:43:10.499Z,9.27
2018-11-07T04:46:14.615Z,7.63
2018-11-07T04:49:18.737Z,11.30
2018-11-07T04:52:22.869Z,11.57
2018-11-07T04:55:26.986Z,16.97
2018-11-07T04:58:31.130Z,20.57
2018-11-07T05:01:35.241Z,17.50
2018-11-07T05:04:39.371Z,17.80
2018-11-07T05:07:43.482Z,17.97
2018-11-07T05:10:47.601Z,13.83
2018-11-07T05:13:51.719Z,12.30
2018-11-07T05:16:55.840Z,17.50
2018-11-07T05:19:59.963Z,16.60
2018-11-07T05:23:04.306Z,19.87
2018-11-07T05:26:08.480Z,18.87
2018-11-07T05:29:12.559Z,23.33
2018-11-07T05:32:16.687Z,16.87
2018-11-07T05:35:20.806Z,18.23
2018-11-07T05:38:24.934Z,26.20
2018-11-07T05:41:29.063Z,21.27
2018-11-07T05:44:33.194Z,19.33
2018-11-07T05:47:37.310Z,24.47
2018-11-07T05:50:41.430Z,27.00
2018-11-07T05:53:45.539Z,18.27
2018-11-07T05:56:49.664Z,18.17
2018-11-07T05:59:53.790Z,21.07
2018-11-07T06:02:57.922Z,18.53
2018-11-07T06:06:02.087Z,16.37
2018-11-07T06:09:08.406Z,15.43
2018-11-07T06:12:12.534Z,16.57
2018-11-07T06:15:16.665Z,22.50
2018-11-07T06:18:20.788Z,21.30
2018-11-07T06:21:24.931Z,31.63
2018-11-07T06:24:29.166Z,35.57
2018-11-07T06:27:33.411Z,23.97
2018-11-07T06:30:37.562Z,22.37
2018-11-07T06:33:41.677Z,19.03
2018-11-07T06:36:45.803Z,20.13
2018-11-07T06:39:49.918Z,16.97
2018-11-07T06:42:54.028Z,13.77
2018-11-07T06:45:58.147Z,16.70
2018-11-07T06:49:02.346Z,14.53
2018-11-07T06:52:06.593Z,17.57
2018-11-07T06:55:11.394Z,15.67
2018-11-07T06:58:15.516Z,14.77
2018-11-07T07:01:19.820Z,15.73
2018-11-07T07:04:24.003Z,15.33
2018-11-07T07:07:28.118Z,20.27
2018-11-07T07:10:32.227Z,17.13
2018-11-07T07:13:36.795Z,16.63
2018-11-07T07:16:40.954Z,15.77
2018-11-07T07:19:45.099Z,15.33
2018-11-07T07:22:49.801Z,19.47
2018-11-07T07:25:53.938Z,15.73
2018-11-07T07:28:58.059Z,17.00
2018-11-07T07:32:02.212Z,17.30
2018-11-07T07:35:06.739Z,17.40
2018-11-07T07:38:10.850Z,24.07
2018-11-07T07:41:14.970Z,22.97
2018-11-07T07:44:19.091Z,16.07
2018-11-07T07:47:23.211Z,15.17
2018-11-07T07:50:27.415Z,14.43
2018-11-07T07:53:31.531Z,14.33
2018-11-07T07:56:35.686Z,10.67
2018-11-07T07:59:39.898Z,14.60
2018-11-07T08:02:45.525Z,14.40
2018-11-07T08:05:49.728Z,20.73
2018-11-07T08:08:53.871Z,24.60
2018-11-07T08:11:58.027Z,17.23
2018-11-07T08:15:02.130Z,21.30
2018-11-07T08:18:07.187Z,19.13
2018-11-07T08:21:11.515Z,17.13
2018-11-07T08:24:15.563Z,13.33
2018-11-07T08:27:19.683Z,15.47
2018-11-07T08:30:23.807Z,15.43
2018-11-07T08:33:27.950Z,19.60
2018-11-07T08:36:32.091Z,16.77
2018-11-07T08:39:36.216Z,16.17
2018-11-07T08:42:40.567Z,15.50
2018-11-07T08:45:44.702Z,20.43
2018-11-07T08:48:48.863Z,12.97
2018-11-07T08:51:53.011Z,15.97
2018-11-07T08:54:57.286Z,15.60
2018-11-07T08:58:01.460Z,17.90
2018-11-07T09:01:05.670Z,15.83
2018-11-07T09:04:09.751Z,18.50
2018-11-07T09:07:13.895Z,17.57
2018-11-07T09:10:19.361Z,15.43
2018-11-07T09:13:23.495Z,14.33
2018-11-07T09:16:27.642Z,14.23
2018-11-07T09:23:03.871Z,18.43
2018-11-07T09:26:08.051Z,15.83
2018-11-07T09:29:12.269Z,16.60
2018-11-07T09:32:16.356Z,22.50
2018-11-07T09:35:21.106Z,14.57
2018-11-07T09:38:25.215Z,19.07
2018-11-07T09:41:29.363Z,12.77
2018-11-07T09:44:33.505Z,16.03
2018-11-07T09:47:37.779Z,15.67
2018-11-07T09:50:41.897Z,13.33
2018-11-07T09:53:46.043Z,10.10
2018-11-07T09:56:50.186Z,15.48
2018-11-07T09:59:54.333Z,13.48
2018-11-07T10:02:58.497Z,9.38
2018-11-07T10:06:02.671Z,14.65
2018-11-07T10:09:09.335Z,9.10
2018-11-07T10:12:13.488Z,8.88
2018-11-07T10:15:17.902Z,9.80
2018-11-07T10:18:22.052Z,10.48
2018-11-07T10:21:26.200Z,9.75
2018-11-07T10:24:30.335Z,9.98
2018-11-07T10:27:34.755Z,9.40
2018-11-07T10:30:38.643Z,13.15
2018-11-07T10:33:43.139Z,7.80
2018-11-07T10:36:47.291Z,9.78
2018-11-07T10:39:51.529Z,6.50
2018-11-07T10:42:55.607Z,11.15
2018-11-07T10:45:59.823Z,7.80
2018-11-07T10:49:03.913Z,8.63
2018-11-07T10:52:08.278Z,7.73
2018-11-07T10:55:13.319Z,9.87
2018-11-07T10:58:17.486Z,9.70
2018-11-07T11:01:26.870Z,8.23
2018-11-07T11:04:31.015Z,6.37
2018-11-07T11:07:35.168Z,6.33
2018-11-07T11:10:39.735Z,8.00
2018-11-07T11:13:43.890Z,6.60
2018-11-07T11:16:48.039Z,4.53
2018-11-07T11:19:52.176Z,6.53
2018-11-07T11:22:56.386Z,4.00
2018-11-07T11:26:00.657Z,4.33
2018-11-07T11:29:04.695Z,4.47
2018-11-07T11:32:08.853Z,3.98
2018-11-07T11:35:13.290Z,5.97
2018-11-07T11:38:17.254Z,4.58
2018-11-07T11:41:21.408Z,4.85
2018-11-07T11:44:25.548Z,4.80
2018-11-07T11:47:29.694Z,5.03
2018-11-07T11:50:33.844Z,5.80
2018-11-07T11:53:38.063Z,4.20
2018-11-07T11:56:42.427Z,6.28
2018-11-07T11:59:46.811Z,8.43
2018-11-07T12:02:50.782Z,5.92
2018-11-07T12:05:54.933Z,5.83
2018-11-07T12:08:59.158Z,7.60
2018-11-07T12:12:03.249Z,4.42
2018-11-07T12:15:07.481Z,10.63
2018-11-07T12:18:11.615Z,3.98
2018-11-07T12:21:15.799Z,4.62
2018-11-07T12:24:19.947Z,4.83
2018-11-07T12:27:24.184Z,4.58
2018-11-07T12:30:28.345Z,5.70
2018-11-07T12:33:32.487Z,4.12
2018-11-07T12:36:36.666Z,5.15
2018-11-07T12:39:40.763Z,7.58
2018-11-07T12:42:44.952Z,5.70
2018-11-07T12:45:49.087Z,8.05
2018-11-07T12:48:53.234Z,4.35
2018-11-07T12:51:57.411Z,3.08
2018-11-07T12:55:01.551Z,2.30
2018-11-07T12:58:05.946Z,3.75
2018-11-07T13:01:10.072Z,3.42
2018-11-07T13:04:14.248Z,3.42
2018-11-07T13:07:18.399Z,2.72
2018-11-07T13:10:23.238Z,2.15
2018-11-07T13:13:27.463Z,5.75
2018-11-07T13:16:31.642Z,5.25
2018-11-07T13:19:35.750Z,2.40
2018-11-07T13:22:39.911Z,4.85
2018-11-07T13:25:44.047Z,2.20
2018-11-07T13:28:48.254Z,2.27
2018-11-07T13:31:52.342Z,4.20
2018-11-07T13:34:56.578Z,5.08
2018-11-07T13:38:00.911Z,2.77
2018-11-07T13:41:05.460Z,5.20
2018-11-07T13:44:09.522Z,3.45
2018-11-07T13:47:13.739Z,3.70
2018-11-07T13:50:18.382Z,2.50
2018-11-07T13:53:22.520Z,3.87
2018-11-07T13:56:26.926Z,2.90
2018-11-07T13:59:31.093Z,4.83
2018-11-07T14:02:35.222Z,5.03
2018-11-07T14:05:39.555Z,2.77
2018-11-07T14:08:43.510Z,7.47
2018-11-07T14:11:47.657Z,4.58
2018-11-07T14:14:51.810Z,4.83
2018-11-07T14:17:55.959Z,3.90
2018-11-07T14:21:00.103Z,12.15
2018-11-07T14:24:04.593Z,6.33
2018-11-07T14:27:08.739Z,8.00
2018-11-07T14:30:15.807Z,6.12
2018-11-07T14:33:19.972Z,7.08
2018-11-07T14:36:24.155Z,5.17
2018-11-07T14:39:28.291Z,7.33
2018-11-07T14:42:32.442Z,4.85
2018-11-07T14:45:36.678Z,6.30
2018-11-07T14:48:41.307Z,3.77
2018-11-07T14:51:45.454Z,7.90
2018-11-07T14:54:49.598Z,5.33
2018-11-07T14:57:53.742Z,6.80
2018-11-07T15:00:57.903Z,5.30
2018-11-07T15:04:02.053Z,4.87
2018-11-07T15:07:06.435Z,4.70
2018-11-07T15:10:11.621Z,3.33
2018-11-07T15:13:15.770Z,5.50
2018-11-07T15:16:19.926Z,6.70
2018-11-07T15:19:24.091Z,4.60
2018-11-07T15:22:28.216Z,5.93
2018-11-07T15:25:32.361Z,9.30
2018-11-07T15:28:36.574Z,2.47
2018-11-07T15:31:40.719Z,4.43
2018-11-07T15:34:44.871Z,8.70
2018-11-07T15:37:49.023Z,3.93
2018-11-07T15:40:53.175Z,4.57
2018-11-07T15:43:57.348Z,3.50
2018-11-07T15:47:01.487Z,5.80
2018-11-07T15:50:10.783Z,3.67
2018-11-07T15:53:14.937Z,3.07
2018-11-07T15:56:19.087Z,5.47
2018-11-07T15:59:23.235Z,4.60
2018-11-07T16:02:27.382Z,3.87
2018-11-07T16:05:31.523Z,8.83
2018-11-07T16:08:35.676Z,6.03
2018-11-07T16:11:39.816Z,6.13
2018-11-07T16:14:43.967Z,6.70
2018-11-07T16:17:48.111Z,5.07
2018-11-07T16:20:52.283Z,4.87
2018-11-07T16:23:56.669Z,6.23
2018-11-07T16:27:00.738Z,4.33
2018-11-07T16:30:06.371Z,6.30
2018-11-07T16:33:10.516Z,3.90
2018-11-07T16:36:14.663Z,6.93
2018-11-07T16:39:18.811Z,8.60
2018-11-07T16:42:22.979Z,11.60
2018-11-07T16:45:27.096Z,5.27
2018-11-07T16:48:31.289Z,4.77
2018-11-07T16:51:35.382Z,7.87
2018-11-07T16:54:39.516Z,6.33
2018-11-07T16:57:43.707Z,8.87
2018-11-07T17:00:47.855Z,5.57
2018-11-07T17:03:52.003Z,5.43
2018-11-07T17:06:56.192Z,8.00
2018-11-07T17:10:00.294Z,5.13
2018-11-07T17:13:04.459Z,9.03
2018-11-07T17:16:08.662Z,9.93
2018-11-07T17:19:12.849Z,6.23
2018-11-07T17:22:16.998Z,5.83
2018-11-07T17:25:21.155Z,9.63
2018-11-07T17:28:25.299Z,7.13
2018-11-07T17:31:30.495Z,8.87
2018-11-07T17:34:34.619Z,12.20
2018-11-07T17:37:38.796Z,8.50
2018-11-07T17:40:42.940Z,13.80
2018-11-07T17:43:47.103Z,14.47
2018-11-07T17:46:51.251Z,11.37
2018-11-07T17:49:55.399Z,11.83
2018-11-07T17:52:59.539Z,8.77
2018-11-07T17:56:03.690Z,12.20
2018-11-07T17:59:07.940Z,8.77
2018-11-07T18:02:12.083Z,8.60
2018-11-07T18:05:16.319Z,6.90
2018-11-07T18:08:20.459Z,8.93
2018-11-07T18:11:24.611Z,6.90
2018-11-07T18:14:28.745Z,9.20
2018-11-07T18:17:32.896Z,9.83
2018-11-07T18:20:37.022Z,12.90
2018-11-07T18:23:41.498Z,12.40
2018-11-07T18:26:45.664Z,14.70
2018-11-07T18:29:49.800Z,12.67
2018-11-07T18:32:53.944Z,10.93
2018-11-07T18:35:58.085Z,11.73
2018-11-07T18:39:02.224Z,9.30
2018-11-07T18:42:06.350Z,10.47
2018-11-07T18:45:11.831Z,10.37
2018-11-07T18:48:15.956Z,9.00
2018-11-07T18:51:20.085Z,12.73
2018-11-07T18:54:24.221Z,7.80
2018-11-07T18:57:28.355Z,6.00
2018-11-07T19:00:32.502Z,6.70
2018-11-07T19:03:36.676Z,6.13
2018-11-07T19:06:40.882Z,6.63
2018-11-07T19:09:44.964Z,5.60
2018-11-07T19:12:49.606Z,7.30
2018-11-07T19:15:53.749Z,5.90
2018-11-07T19:18:57.887Z,7.27
2018-11-07T19:22:02.015Z,7.97
2018-11-07T19:25:08.602Z,5.63
2018-11-07T19:28:12.738Z,7.43
2018-11-07T19:31:16.883Z,7.77
2018-11-07T19:34:21.014Z,5.70
2018-11-07T19:37:25.150Z,6.73
2018-11-07T19:40:29.285Z,6.77
2018-11-07T19:43:33.406Z,7.90
2018-11-07T19:46:37.881Z,5.30
2018-11-07T19:49:42.020Z,7.17
2018-11-07T19:52:47.321Z,9.53
2018-11-07T19:55:51.456Z,7.57
2018-11-07T19:58:55.696Z,5.50
2018-11-07T20:01:59.841Z,7.63
2018-11-07T20:05:04.014Z,10.53
2018-11-07T20:08:08.166Z,8.17
2018-11-07T20:11:12.322Z,7.97
2018-11-07T20:14:16.458Z,8.47
2018-11-07T20:17:20.615Z,21.73
2018-11-07T20:20:24.747Z,7.27
2018-11-07T20:23:28.887Z,10.23
2018-11-07T20:26:33.036Z,11.63
2018-11-07T20:29:37.158Z,8.67
2018-11-07T20:32:41.566Z,10.57
2018-11-07T20:35:45.987Z,13.07
2018-11-07T20:38:50.017Z,10.83
2018-11-07T20:41:54.336Z,11.23
2018-11-07T20:44:58.307Z,12.17
2018-11-07T20:48:02.464Z,14.37
2018-11-07T20:51:06.885Z,14.00
2018-11-07T20:54:11.042Z,14.17
2018-11-07T20:57:15.263Z,14.17
2018-11-07T21:00:20.751Z,9.00
2018-11-07T21:03:24.891Z,19.77
2018-11-07T21:06:29.044Z,19.07
2018-11-07T21:09:33.219Z,16.83
2018-11-07T21:12:37.472Z,16.33
2018-11-07T21:15:41.610Z,14.33
2018-11-07T21:18:45.751Z,12.10
2018-11-07T21:21:49.876Z,12.27
2018-11-07T21:24:54.007Z,10.03
2018-11-07T21:27:58.167Z,10.93
2018-11-07T21:31:02.332Z,14.77
2018-11-07T21:34:06.455Z,9.37
2018-11-07T21:37:10.595Z,10.67
2018-11-07T21:40:16.533Z,13.53
2018-11-07T21:43:20.667Z,11.03
2018-11-07T21:46:24.806Z,10.43
2018-11-07T21:49:28.940Z,9.83
2018-11-07T21:52:33.076Z,10.73
2018-11-07T21:55:37.202Z,8.47
2018-11-07T21:58:41.331Z,8.50
2018-11-07T22:01:45.494Z,9.17
2018-11-07T22:04:49.628Z,9.80
2018-11-07T22:07:53.786Z,9.70
2018-11-07T22:10:57.910Z,13.43
2018-11-07T22:14:02.063Z,13.57
2018-11-07T22:17:06.242Z,12.37
2018-11-07T22:20:14.541Z,12.83
2018-11-07T22:23:18.678Z,11.80
2018-11-07T22:26:22.835Z,10.93
2018-11-07T22:29:26.970Z,10.90
2018-11-07T22:32:31.112Z,15.97
2018-11-07T22:35:35.272Z,14.07
2018-11-07T22:38:39.409Z,16.10
2018-11-07T22:41:44.578Z,12.77
2018-11-07T22:44:48.714Z,14.03
2018-11-07T22:47:52.865Z,17.13
2018-11-07T22:50:56.992Z,14.90
2018-11-07T22:54:01.455Z,10.57
2018-11-07T22:57:06.008Z,12.87
2018-11-07T23:00:18.411Z,17.60
2018-11-07T23:03:22.563Z,11.47
2018-11-07T23:06:26.720Z,12.87
2018-11-07T23:09:30.864Z,10.60
2018-11-07T23:12:34.999Z,12.53
2018-11-07T23:15:44.721Z,12.87
2018-11-07T23:18:48.871Z,11.77
2018-11-07T23:21:53.014Z,9.10
2018-11-07T23:24:57.156Z,9.60
2018-11-07T23:28:01.283Z,14.83
2018-11-07T23:31:05.427Z,11.90
2018-11-07T23:34:09.573Z,10.47
2018-11-07T23:37:13.786Z,9.13
2018-11-07T23:40:17.927Z,14.23
2018-11-07T23:43:22.073Z,8.47
2018-11-07T23:46:26.210Z,8.70
2018-11-07T23:49:30.361Z,11.63
2018-11-07T23:52:39.769Z,11.43
2018-11-07T23:55:44.877Z,11.57
2018-11-07T23:58:49.306Z,12.33
